Terminal Aerodrome Forecast
Issued by NWS

Current Version | Previous Version | Graphics & Text | Print | Product List | Glossary On
Versions: 1 2 3 4 5 6 7 8 9 10 11 12 13 14 15
000
FTUS41 KRNK 212323
TAFLWB
TAF
KLWB 212323Z 2200/2224 20007KT P6SM BKN050
     FM220500 22005KT P6SM VCSH BKN025
     FM220700 VRB03KT P6SM BKN010
     FM221000 29007KT P6SM BKN035
     FM221400 31011KT P6SM SCT040
     FM222300 32008KT P6SM SKC=

USA.gov is the U.S. government's official web portal to all federal, state and local government web resources and services.